Time;durP1;ratioP1;P1;durP2;ratioP2;P2;SDS_P1;SDS_P2;PMS_P1;PMS_P2;Temp;Humidity;BMP_temperature;BMP_pressure;BME280_temperature;BME280_humidity;BME280_pressure;Samples;Min_cycle;Max_cycle;Signal;HPM_P1;HPM_P2
2023/12/09 00:02:10;;;;;;;2.13;1.73;;;17.20;58.50;;;;;;6107373;23;20164;-84
2023/12/09 00:04:36;;;;;;;2.58;1.83;;;17.20;58.60;;;;;;6131399;23;20136;-85
2023/12/09 00:07:02;;;;;;;1.98;1.77;;;17.10;58.80;;;;;;6106277;23;20167;-84
2023/12/09 00:09:29;;;;;;;2.75;1.90;;;17.20;58.70;;;;;;6142759;23;20582;-83
2023/12/09 00:12:01;;;;;;;2.35;1.88;;;17.10;58.80;;;;;;6154383;23;20138;-84
2023/12/09 00:17:02;;;;;;;3.50;1.80;;;17.10;58.60;;;;;;6186579;23;20220;-84
2023/12/09 00:19:28;;;;;;;2.42;2.00;;;17.20;58.70;;;;;;6160856;23;20151;-84
2023/12/09 00:21:56;;;;;;;4.75;1.98;;;17.20;58.50;;;;;;6185580;23;20139;-84
2023/12/09 00:24:23;;;;;;;2.22;1.80;;;17.10;58.60;;;;;;6184545;23;20138;-84
2023/12/09 00:26:49;;;;;;;2.80;1.95;;;17.10;58.60;;;;;;6185356;23;20135;-84
2023/12/09 00:29:15;;;;;;;2.28;2.00;;;17.10;58.90;;;;;;6185040;23;20138;-84
2023/12/09 00:31:41;;;;;;;2.33;2.00;;;17.10;58.60;;;;;;6185276;23;20151;-85
2023/12/09 00:34:09;;;;;;;2.05;1.70;;;17.10;58.90;;;;;;6184471;23;20153;-85
2023/12/09 00:36:35;;;;;;;2.42;2.10;;;17.10;58.80;;;;;;6159627;23;20186;-84
2023/12/09 00:39:02;;;;;;;2.08;1.80;;;17.00;58.70;;;;;;6159449;23;20139;-84
2023/12/09 00:41:29;;;;;;;2.72;2.13;;;17.10;58.70;;;;;;6159744;23;20143;-84
2023/12/09 00:43:56;;;;;;;2.50;2.03;;;17.10;58.80;;;;;;6184948;23;20147;-85
2023/12/09 00:46:22;;;;;;;2.08;1.77;;;17.10;58.70;;;;;;6161105;23;20209;-83
2023/12/09 00:48:49;;;;;;;2.95;2.20;;;17.10;58.80;;;;;;6217577;23;20157;-84
2023/12/09 00:51:30;;;;;;;2.10;1.73;;;17.10;58.80;;;;;;6160856;23;20206;-84
2023/12/09 00:56:26;;;;;;;2.22;1.80;;;17.00;58.90;;;;;;6156595;23;20217;-84
2023/12/09 00:58:53;;;;;;;2.47;2.10;;;17.00;58.90;;;;;;6131829;23;20194;-84
2023/12/09 01:01:21;;;;;;;2.30;1.85;;;17.00;58.80;;;;;;6081803;23;20159;-85
2023/12/09 01:03:47;;;;;;;2.28;1.88;;;17.00;58.90;;;;;;6107321;23;20152;-84
2023/12/09 01:06:13;;;;;;;2.25;1.85;;;17.10;58.80;;;;;;6133142;23;20142;-84
2023/12/09 01:08:40;;;;;;;2.78;1.90;;;17.00;58.90;;;;;;6108331;23;20486;-84
2023/12/09 01:11:05;;;;;;;2.83;2.05;;;17.10;59.00;;;;;;6084151;23;20183;-84
2023/12/09 01:13:36;;;;;;;3.17;1.95;;;17.00;58.80;;;;;;6109635;23;20144;-84
2023/12/09 01:16:09;;;;;;;2.40;2.05;;;17.00;59.10;;;;;;6036587;23;20183;-84
2023/12/09 01:18:40;;;;;;;3.10;2.20;;;17.00;59.10;;;;;;6060752;23;20201;-84
2023/12/09 01:21:07;;;;;;;2.20;1.88;;;16.90;59.10;;;;;;6133274;23;20147;-84
2023/12/09 01:23:37;;;;;;;3.75;2.33;;;17.00;59.10;;;;;;6060689;23;20165;-84
2023/12/09 01:26:03;;;;;;;2.90;1.98;;;16.90;59.10;;;;;;6060001;23;20202;-84
2023/12/09 01:28:29;;;;;;;2.72;1.92;;;17.00;59.20;;;;;;6131699;23;20127;-83
2023/12/09 01:30:55;;;;;;;3.25;2.20;;;17.00;59.10;;;;;;6133065;23;20135;-84
2023/12/09 01:33:22;;;;;;;2.50;2.28;;;17.00;59.10;;;;;;6133340;23;20470;-84
2023/12/09 01:35:48;;;;;;;2.80;2.20;;;17.00;59.10;;;;;;6107461;23;20179;-85
2023/12/09 01:38:14;;;;;;;2.80;2.22;;;17.00;59.10;;;;;;6132709;23;20142;-84
2023/12/09 01:40:40;;;;;;;3.08;2.15;;;17.00;59.00;;;;;;6132914;23;20143;-84
2023/12/09 01:43:10;;;;;;;2.85;2.10;;;17.00;59.00;;;;;;6107914;23;20139;-84
2023/12/09 01:45:38;;;;;;;2.85;2.25;;;16.90;59.10;;;;;;6153832;23;20222;-85
2023/12/09 01:48:04;;;;;;;2.50;2.00;;;16.90;59.10;;;;;;6161247;23;20143;-85
2023/12/09 01:50:31;;;;;;;2.92;2.08;;;16.90;59.20;;;;;;6137547;23;20147;-84
2023/12/09 01:53:00;;;;;;;2.45;2.08;;;16.90;59.10;;;;;;6162597;23;20151;-85
2023/12/09 01:55:27;;;;;;;3.33;2.15;;;17.00;59.10;;;;;;6113237;23;20949;-85
2023/12/09 01:57:53;;;;;;;3.05;2.15;;;16.90;59.00;;;;;;6188535;23;20210;-84
2023/12/09 02:00:19;;;;;;;3.22;2.28;;;17.00;59.10;;;;;;6138026;23;20567;-84
2023/12/09 02:02:46;;;;;;;2.50;1.90;;;16.90;59.10;;;;;;6138030;23;20154;-84
2023/12/09 02:05:17;;;;;;;3.05;2.20;;;16.90;59.10;;;;;;6064013;23;20155;-84
2023/12/09 02:07:44;;;;;;;3.53;2.30;;;16.90;59.00;;;;;;6087659;23;20174;-84
2023/12/09 02:10:10;;;;;;;2.67;2.20;;;16.90;59.20;;;;;;6086750;23;20151;-84
2023/12/09 02:12:43;;;;;;;2.38;2.17;;;17.00;59.10;;;;;;6137955;23;20601;-85
2023/12/09 02:15:24;;;;;;;3.30;2.20;;;17.00;59.10;;;;;;6162361;23;20166;-84
2023/12/09 02:17:54;;;;;;;2.78;2.30;;;16.90;59.20;;;;;;6164142;23;20469;-85
2023/12/09 02:20:25;;;;;;;2.47;2.05;;;16.90;59.10;;;;;;6161977;23;20131;-84
2023/12/09 02:23:14;;;;;;;2.63;2.17;;;16.90;59.10;;;;;;6163272;23;20174;-85
2023/12/09 02:25:41;;;;;;;3.17;2.10;;;16.90;59.10;;;;;;6026757;23;20169;-84
2023/12/09 02:28:17;;;;;;;3.08;1.85;;;16.90;59.20;;;;;;6139038;23;20150;-83
2023/12/09 02:30:51;;;;;;;3.15;2.05;;;16.90;59.00;;;;;;6163107;23;20131;-83
2023/12/09 02:33:17;;;;;;;3.97;2.20;;;16.90;59.20;;;;;;6138083;23;20143;-84
2023/12/09 02:35:45;;;;;;;2.53;2.00;;;16.90;59.10;;;;;;6162841;23;20661;-84
2023/12/09 02:41:02;;;;;;;3.13;2.25;;;16.90;59.10;;;;;;6178772;23;20720;-83
2023/12/09 02:43:35;;;;;;;2.50;2.20;;;16.90;59.00;;;;;;6162528;23;20624;-83
2023/12/09 02:46:02;;;;;;;2.90;2.30;;;16.80;59.10;;;;;;6137295;23;20155;-84
2023/12/09 02:48:32;;;;;;;3.42;2.40;;;16.90;59.30;;;;;;6188007;23;20134;-84
2023/12/09 02:51:00;;;;;;;2.92;2.20;;;16.90;59.10;;;;;;6162400;23;20154;-84
2023/12/09 02:53:26;;;;;;;3.03;2.10;;;16.90;59.00;;;;;;6163642;23;20143;-84
2023/12/09 02:55:52;;;;;;;2.90;2.20;;;16.90;58.90;;;;;;6188244;23;20632;-84
2023/12/09 02:58:19;;;;;;;3.30;2.38;;;16.90;59.00;;;;;;6163584;23;20451;-84
2023/12/09 03:00:46;;;;;;;3.17;2.15;;;16.90;59.00;;;;;;6187458;23;20633;-84
2023/12/09 03:03:12;;;;;;;3.20;2.10;;;16.80;59.80;;;;;;6187821;23;20142;-84
2023/12/09 03:05:37;;;;;;;2.47;1.90;;;16.90;59.10;;;;;;6187355;23;20531;-85
2023/12/09 03:08:03;;;;;;;2.83;2.33;;;16.90;59.20;;;;;;6187674;23;20588;-84
2023/12/09 03:10:33;;;;;;;3.33;2.47;;;16.90;59.10;;;;;;6163598;23;20581;-84
2023/12/09 03:12:59;;;;;;;2.63;2.20;;;16.90;59.10;;;;;;6136546;23;20150;-85
2023/12/09 03:15:28;;;;;;;2.95;2.40;;;16.90;59.20;;;;;;6162118;23;20181;-84
2023/12/09 03:17:58;;;;;;;2.60;1.90;;;16.90;59.10;;;;;;6162210;23;20200;-84
2023/12/09 03:20:27;;;;;;;2.65;2.10;;;16.80;59.10;;;;;;6161491;23;20577;-84
2023/12/09 03:22:54;;;;;;;2.63;2.17;;;17.00;59.20;;;;;;6136523;23;20158;-84
2023/12/09 03:25:20;;;;;;;2.78;2.13;;;16.80;59.00;;;;;;6186976;23;20226;-84
2023/12/09 03:27:46;;;;;;;2.80;2.10;;;16.90;59.10;;;;;;6186341;23;20186;-84
2023/12/09 03:30:14;;;;;;;3.00;2.17;;;16.80;59.20;;;;;;6160543;23;20142;-84
2023/12/09 03:32:45;;;;;;;3.08;2.28;;;16.80;59.10;;;;;;6186161;23;20158;-84
2023/12/09 03:35:13;;;;;;;3.25;2.17;;;16.90;59.10;;;;;;6186577;23;20229;-84
2023/12/09 03:40:13;;;;;;;3.42;2.22;;;16.80;59.20;;;;;;6183945;23;20210;-84
2023/12/09 03:42:43;;;;;;;2.90;2.17;;;16.80;59.10;;;;;;6159894;23;20155;-84
2023/12/09 03:45:09;;;;;;;2.58;2.10;;;16.90;59.10;;;;;;6135583;23;20158;-84
2023/12/09 03:47:36;;;;;;;3.38;2.30;;;16.80;59.20;;;;;;6186778;23;20536;-84
2023/12/09 03:50:10;;;;;;;2.95;2.22;;;16.80;59.00;;;;;;6185975;23;20142;-83
2023/12/09 03:52:42;;;;;;;2.83;2.20;;;16.80;59.10;;;;;;6111784;23;20528;-84
2023/12/09 03:55:09;;;;;;;2.47;2.10;;;16.80;59.10;;;;;;6159667;23;20155;-83
2023/12/09 03:57:40;;;;;;;2.67;2.00;;;16.80;59.10;;;;;;6160658;23;20139;-84
2023/12/09 04:00:09;;;;;;;2.88;2.38;;;16.80;59.10;;;;;;6136218;23;20158;-84
2023/12/09 04:02:35;;;;;;;3.45;2.30;;;16.90;59.10;;;;;;6187153;23;20458;-84
2023/12/09 04:05:01;;;;;;;2.33;2.03;;;16.80;59.10;;;;;;6186727;23;20131;-84
2023/12/09 04:07:26;;;;;;;3.50;2.30;;;16.80;59.10;;;;;;6160632;23;21049;-83
2023/12/09 04:09:52;;;;;;;2.92;2.25;;;16.80;59.10;;;;;;6187744;23;20504;-84
2023/12/09 04:14:43;;;;;;;3.08;2.28;;;16.80;58.90;;;;;;6187906;23;20285;-83
2023/12/09 04:17:09;;;;;;;2.35;2.10;;;16.80;58.90;;;;;;6161681;23;20590;-83
2023/12/09 04:19:35;;;;;;;2.42;2.20;;;16.80;59.00;;;;;;6138337;23;20170;-83
2023/12/09 04:24:36;;;;;;;2.63;1.92;;;16.80;59.10;;;;;;6184413;23;20202;-84
2023/12/09 04:27:02;;;;;;;2.58;2.20;;;16.80;59.90;;;;;;6161730;23;20253;-83
2023/12/09 04:29:29;;;;;;;2.58;2.10;;;16.80;59.20;;;;;;6161452;23;20143;-84
2023/12/09 04:31:54;;;;;;;3.55;2.22;;;16.80;59.10;;;;;;6161322;23;20197;-84
2023/12/09 04:34:20;;;;;;;2.67;2.30;;;16.80;59.10;;;;;;6161257;23;20513;-84
2023/12/09 04:36:51;;;;;;;2.55;2.03;;;16.80;59.10;;;;;;6186156;23;20189;-84
2023/12/09 04:39:19;;;;;;;3.03;2.20;;;16.90;59.00;;;;;;6161626;23;20149;-84
2023/12/09 04:41:46;;;;;;;3.33;2.25;;;16.80;59.10;;;;;;6187773;23;20135;-83
2023/12/09 04:44:12;;;;;;;3.95;2.60;;;16.80;59.10;;;;;;6188448;23;20127;-84
2023/12/09 04:46:38;;;;;;;2.80;2.33;;;16.80;59.10;;;;;;6188400;23;20605;-84
2023/12/09 04:49:04;;;;;;;4.55;2.40;;;16.80;59.10;;;;;;6164429;23;20143;-85
2023/12/09 04:51:30;;;;;;;2.83;2.30;;;16.80;59.10;;;;;;6162064;23;20415;-84
2023/12/09 04:53:58;;;;;;;2.58;2.25;;;16.80;59.10;;;;;;6139491;23;20206;-84
2023/12/09 04:56:23;;;;;;;2.67;2.25;;;16.80;59.10;;;;;;6169544;23;20226;-84
2023/12/09 04:58:49;;;;;;;2.83;2.40;;;16.90;58.90;;;;;;6145066;23;20154;-84
2023/12/09 05:01:21;;;;;;;2.97;2.38;;;16.80;59.10;;;;;;6168904;23;20131;-84
2023/12/09 05:03:50;;;;;;;2.90;2.17;;;16.90;59.10;;;;;;6118581;23;20155;-83
2023/12/09 05:06:17;;;;;;;3.33;2.38;;;16.80;59.00;;;;;;6093169;23;20669;-84
2023/12/09 05:08:47;;;;;;;3.03;2.63;;;16.80;59.00;;;;;;6168300;23;20201;-84
2023/12/09 05:11:13;;;;;;;3.75;2.58;;;16.80;59.10;;;;;;6094665;23;20157;-84
2023/12/09 05:13:43;;;;;;;3.10;2.30;;;16.70;59.10;;;;;;6168895;23;20135;-83
2023/12/09 05:16:11;;;;;;;3.03;2.30;;;16.80;59.10;;;;;;6118661;23;20506;-85
2023/12/09 05:18:42;;;;;;;2.80;2.30;;;16.80;59.10;;;;;;6094084;23;20155;-85
2023/12/09 05:21:08;;;;;;;3.17;2.35;;;16.80;59.10;;;;;;6094855;23;20161;-84
2023/12/09 05:23:34;;;;;;;2.75;2.30;;;16.80;58.90;;;;;;6144507;23;20223;-85
2023/12/09 05:26:01;;;;;;;2.80;2.40;;;16.80;59.10;;;;;;6135438;23;20515;-84
2023/12/09 05:28:30;;;;;;;3.08;2.40;;;16.80;59.10;;;;;;6138626;23;20163;-84
2023/12/09 05:30:59;;;;;;;3.50;2.40;;;16.80;59.00;;;;;;6115197;23;20136;-85
2023/12/09 05:33:32;;;;;;;2.95;2.42;;;16.80;58.90;;;;;;6113794;23;20179;-84
2023/12/09 05:35:57;;;;;;;3.10;2.42;;;16.80;59.00;;;;;;6066844;23;20209;-85
2023/12/09 05:38:26;;;;;;;3.90;2.65;;;16.80;58.90;;;;;;6115708;23;20175;-84
2023/12/09 05:40:56;;;;;;;3.22;2.50;;;16.90;59.10;;;;;;6043780;23;20156;-84
2023/12/09 05:43:25;;;;;;;4.18;2.53;;;16.80;59.10;;;;;;6090723;23;20155;-85
2023/12/09 05:45:56;;;;;;;2.72;2.40;;;16.80;59.10;;;;;;6091017;23;20151;-84
2023/12/09 05:48:24;;;;;;;2.90;2.22;;;16.80;59.10;;;;;;6066677;23;20163;-84
2023/12/09 05:50:51;;;;;;;2.95;2.30;;;16.80;59.10;;;;;;6136521;23;20132;-85
2023/12/09 05:53:22;;;;;;;3.67;2.45;;;16.80;59.00;;;;;;6059451;23;20202;-85
2023/12/09 05:55:52;;;;;;;3.28;2.47;;;16.80;59.00;;;;;;6108201;23;20179;-85
2023/12/09 05:58:18;;;;;;;2.85;2.30;;;16.80;59.00;;;;;;6083217;23;20214;-85
2023/12/09 06:00:44;;;;;;;3.20;2.33;;;16.80;59.10;;;;;;6107419;23;20140;-85
2023/12/09 06:03:10;;;;;;;3.22;2.42;;;16.70;58.90;;;;;;6131551;23;20135;-85
2023/12/09 06:05:36;;;;;;;3.05;2.50;;;16.80;58.90;;;;;;6107197;23;20224;-85
2023/12/09 06:08:02;;;;;;;3.30;2.53;;;16.70;58.90;;;;;;6107226;23;20147;-85
2023/12/09 06:10:30;;;;;;;3.70;2.60;;;16.80;59.00;;;;;;6107746;23;20226;-85
2023/12/09 06:12:56;;;;;;;2.78;2.25;;;16.80;58.90;;;;;;6131932;23;20132;-85
2023/12/09 06:15:25;;;;;;;3.95;2.60;;;16.80;59.00;;;;;;6132345;23;20167;-85
2023/12/09 06:17:51;;;;;;;2.97;2.20;;;16.80;59.10;;;;;;6058003;23;20464;-85
2023/12/09 06:20:17;;;;;;;2.67;2.28;;;16.80;59.00;;;;;;6132002;23;20132;-85
2023/12/09 06:22:43;;;;;;;3.22;2.35;;;16.80;58.90;;;;;;6107089;23;20147;-85
2023/12/09 06:25:10;;;;;;;2.70;2.33;;;16.80;58.80;;;;;;6184048;23;20194;-86
2023/12/09 06:30:11;;;;;;;3.17;2.33;;;16.80;58.80;;;;;;6186338;23;20275;-87
2023/12/09 06:32:41;;;;;;;3.10;2.33;;;16.70;59.00;;;;;;6161353;23;20150;-87
2023/12/09 06:35:07;;;;;;;3.28;2.50;;;16.80;58.90;;;;;;6161642;23;20127;-87
2023/12/09 06:37:40;;;;;;;4.15;2.65;;;16.80;59.00;;;;;;6136941;23;20457;-87
2023/12/09 06:40:10;;;;;;;3.05;2.42;;;16.80;58.90;;;;;;6063128;23;20154;-87
2023/12/09 06:42:37;;;;;;;2.60;2.13;;;16.80;58.90;;;;;;6062900;23;20150;-87
2023/12/09 06:48:01;;;;;;;3.33;2.60;;;16.80;58.90;;;;;;6185671;23;20206;-86
2023/12/09 06:50:29;;;;;;;3.00;2.22;;;16.80;58.80;;;;;;6160663;23;20143;-87
2023/12/09 06:58:01;;;;;;;3.97;2.60;;;16.80;58.90;;;;;;6179645;23;20217;-85
2023/12/09 07:00:27;;;;;;;2.42;2.17;;;16.80;58.90;;;;;;6087321;23;20151;-86
2023/12/09 07:02:53;;;;;;;3.42;2.28;;;16.80;58.90;;;;;;6158993;23;20162;-86
2023/12/09 07:54:30;;;;;;;6.32;2.42;;;16.90;58.40;;;;;;6181278;23;20264;-84
2023/12/09 07:57:00;;;;;;;5.45;2.42;;;16.90;58.50;;;;;;6068634;23;20186;-85
2023/12/09 07:59:27;;;;;;;8.55;2.67;;;16.90;58.50;;;;;;6090862;23;20147;-84
2023/12/09 08:01:54;;;;;;;5.93;2.80;;;16.90;58.40;;;;;;6142533;23;20154;-86
2023/12/09 08:04:25;;;;;;;6.95;2.90;;;17.00;58.30;;;;;;6168055;23;20569;-87
2023/12/09 08:06:53;;;;;;;5.65;2.60;;;17.00;58.20;;;;;;6170588;23;20190;-86
2023/12/09 08:09:22;;;;;;;4.15;2.47;;;17.00;58.30;;;;;;6168302;23;20241;-87
2023/12/09 08:11:55;;;;;;;6.07;2.70;;;17.00;58.30;;;;;;6147630;23;20197;-84
2023/12/09 08:14:22;;;;;;;5.18;2.58;;;17.10;57.90;;;;;;6174990;23;20181;-84
2023/12/09 08:16:48;;;;;;;5.70;2.58;;;17.10;57.70;;;;;;6148571;23;20258;-85
2023/12/09 08:19:17;;;;;;;4.82;2.53;;;17.20;57.40;;;;;;6148162;23;20158;-84
2023/12/09 08:21:45;;;;;;;4.63;2.60;;;17.30;57.30;;;;;;6147439;23;20134;-86
2023/12/09 08:24:11;;;;;;;7.00;2.65;;;17.30;57.10;;;;;;6145825;23;20147;-86
2023/12/09 08:26:39;;;;;;;6.32;2.70;;;17.20;57.50;;;;;;6169687;23;20169;-86
2023/12/09 08:29:21;;;;;;;;;;;;;;;;;;;;;
2023/12/09 10:49:35;;;;;;;10.05;2.45;;;18.00;57.90;;;;;;6191405;23;20200;31
2023/12/09 10:52:01;;;;;;;5.28;2.30;;;18.00;57.60;;;;;;6164209;23;20202;-86
2023/12/09 10:54:31;;;;;;;6.60;2.90;;;18.00;58.40;;;;;;6129519;23;20227;-85
2023/12/09 10:57:02;;;;;;;4.88;2.42;;;17.90;58.50;;;;;;6163068;23;20163;-85
2023/12/09 10:59:29;;;;;;;8.75;2.40;;;18.00;58.90;;;;;;6130643;23;20150;-84
2023/12/09 11:02:11;;;;;;;4.47;2.50;;;17.90;59.30;;;;;;6118750;23;20124;-85
2023/12/09 11:04:42;;;;;;;3.78;2.53;;;18.00;59.20;;;;;;6112208;23;20151;-86
2023/12/09 11:07:08;;;;;;;6.07;2.38;;;18.00;58.90;;;;;;6059151;23;20200;-85
2023/12/09 11:09:47;;;;;;;7.18;2.40;;;18.00;59.40;;;;;;6080757;23;20157;-85
2023/12/09 11:12:27;;;;;;;5.07;2.40;;;18.00;58.50;;;;;;6056620;23;20152;-85
2023/12/09 11:15:00;;;;;;;12.68;2.72;;;18.00;59.20;;;;;;6079162;23;20266;-86
2023/12/09 11:17:36;;;;;;;9.55;2.63;;;18.10;59.20;;;;;;6059254;23;20192;-85
2023/12/09 11:20:17;;;;;;;6.18;2.65;;;18.10;59.90;;;;;;6057971;23;20650;-86
2023/12/09 11:22:47;;;;;;;3.83;2.58;;;18.00;58.90;;;;;;6057266;23;20188;-86
2023/12/09 11:25:27;;;;;;;7.65;2.80;;;18.00;59.20;;;;;;6079546;23;20133;-84
2023/12/09 11:27:58;;;;;;;5.85;2.03;;;18.00;59.50;;;;;;6053973;23;20156;-85
2023/12/09 11:30:39;;;;;;;5.90;2.65;;;18.00;59.60;;;;;;6032678;23;20153;-86
2023/12/09 11:33:10;;;;;;;8.93;2.40;;;18.00;59.10;;;;;;6051568;23;20153;-84
2023/12/09 11:35:36;;;;;;;8.27;2.55;;;18.00;59.60;;;;;;6007097;23;20187;-86
2023/12/09 11:38:06;;;;;;;8.05;2.42;;;18.10;59.80;;;;;;6103262;23;20242;-87
2023/12/09 11:40:36;;;;;;;9.05;2.55;;;18.10;59.50;;;;;;6112335;23;20170;-85
2023/12/09 11:43:08;;;;;;;14.38;2.97;;;18.10;59.60;;;;;;6042181;23;20186;-85
2023/12/09 11:45:35;;;;;;;15.18;2.83;;;18.10;59.60;;;;;;6067957;23;20177;-86
2023/12/09 11:48:03;;;;;;;5.90;2.70;;;18.10;59.80;;;;;;6133876;23;20192;-86
2023/12/09 11:50:29;;;;;;;15.98;3.22;;;18.20;59.00;;;;;;6130182;23;20515;-86
2023/12/09 11:52:55;;;;;;;16.95;2.75;;;18.10;60.00;;;;;;6111779;23;20159;-86
2023/12/09 11:55:29;;;;;;;15.98;3.00;;;18.20;59.80;;;;;;6126166;23;20178;-86
2023/12/09 11:58:06;;;;;;;;;;;;;;;;;;;;;
2023/12/09 12:00:32;;;;;;;25.95;3.40;;;18.10;59.50;;;;;;6130617;23;20183;-86
2023/12/09 12:03:19;;;;;;;9.32;2.72;;;18.20;59.90;;;;;;6137814;23;20582;-85
2023/12/09 12:06:03;;;;;;;6.32;2.50;;;18.20;59.60;;;;;;6075253;23;20292;-86
2023/12/09 12:08:29;;;;;;;12.02;2.60;;;18.10;59.50;;;;;;6050561;23;20153;-85
2023/12/09 12:10:57;;;;;;;17.30;3.28;;;18.10;59.00;;;;;;6075102;23;20574;-87
2023/12/09 12:13:23;;;;;;;9.02;2.35;;;18.10;58.50;;;;;;6051607;23;20164;-86
2023/12/09 12:15:54;;;;;;;12.68;2.90;;;18.20;57.90;;;;;;6076018;23;20177;-87
2023/12/09 12:18:23;;;;;;;11.45;2.90;;;18.20;58.80;;;;;;6052214;23;20145;-87
2023/12/09 12:20:50;;;;;;;13.40;2.75;;;18.10;59.00;;;;;;6020336;23;20219;-85
2023/12/09 12:23:22;;;;;;;14.07;2.90;;;18.10;58.90;;;;;;5969591;24;20155;-85
2023/12/09 12:25:50;;;;;;;12.65;2.50;;;18.20;59.50;;;;;;5969392;24;20155;-86
2023/12/09 12:28:17;;;;;;;11.98;2.65;;;18.00;59.10;;;;;;5946132;24;20158;-87
2023/12/09 12:31:13;;;;;;;9.48;2.65;;;18.20;59.20;;;;;;5968731;24;20156;-86
2023/12/09 12:34:11;;;;;;;6.25;2.25;;;18.20;59.60;;;;;;5977832;24;20254;-86
2023/12/09 12:37:06;;;;;;;7.68;2.60;;;18.20;59.20;;;;;;6002773;23;20220;-86
2023/12/09 12:39:31;;;;;;;14.18;2.70;;;18.20;58.80;;;;;;6059877;23;20138;-85
2023/12/09 12:41:57;;;;;;;9.57;2.42;;;18.30;58.30;;;;;;6051296;23;20180;-87
2023/12/09 12:44:24;;;;;;;5.90;2.28;;;18.20;58.20;;;;;;6058038;23;20245;-86
2023/12/09 12:47:06;;;;;;;11.85;2.50;;;18.30;58.10;;;;;;6056780;23;20157;-85
2023/12/09 12:49:43;;;;;;;10.02;2.20;;;18.30;58.00;;;;;;6057993;23;20221;-85
2023/12/09 12:52:10;;;;;;;8.88;2.75;;;18.30;58.60;;;;;;6052865;23;20263;-87
2023/12/09 12:54:39;;;;;;;15.27;3.13;;;18.30;59.10;;;;;;6105783;23;20152;-84
2023/12/09 12:57:05;;;;;;;11.57;2.65;;;18.10;60.40;;;;;;6115485;23;20328;-86
2023/12/09 12:59:33;;;;;;;11.65;2.88;;;18.10;61.40;;;;;;6106596;23;20223;-88
2023/12/09 13:02:04;;;;;;;11.00;2.35;;;18.10;61.10;;;;;;6143170;23;20128;-86
2023/12/09 13:04:34;;;;;;;10.43;2.08;;;18.10;60.30;;;;;;6082780;23;20158;-86
2023/12/09 13:07:02;;;;;;;11.93;2.60;;;18.20;58.90;;;;;;6115921;23;20156;-86
2023/12/09 13:09:28;;;;;;;9.30;2.28;;;18.20;59.80;;;;;;6132443;23;20131;-86
2023/12/09 13:11:55;;;;;;;4.68;2.00;;;18.20;59.20;;;;;;6143156;23;20151;-86
2023/12/09 13:14:41;;;;;;;6.70;2.50;;;18.20;59.30;;;;;;6117476;23;20482;-85
2023/12/09 13:20:07;;;;;;;;;;;;;;;;;;;;;
2023/12/09 13:22:35;;;;;;;11.38;2.25;;;18.30;59.50;;;;;;5993554;23;20205;-86
2023/12/09 13:25:04;;;;;;;9.57;2.22;;;18.20;59.60;;;;;;5990638;23;20143;-87
2023/12/09 13:27:33;;;;;;;7.03;2.40;;;18.20;59.70;;;;;;5995056;23;20174;-87
2023/12/09 13:30:06;;;;;;;8.05;2.00;;;18.10;60.30;;;;;;5974798;23;20162;-87
2023/12/09 15:44:40;;;;;;;3.95;1.70;;;18.20;61.50;;;;;;6189572;23;20196;-85
2023/12/09 15:47:11;;;;;;;3.97;1.60;;;18.10;61.40;;;;;;6167924;23;20249;-86
2023/12/09 15:49:46;;;;;;;7.13;1.90;;;18.10;61.10;;;;;;6091731;23;20150;-85
2023/12/09 15:52:16;;;;;;;4.03;1.67;;;18.10;60.90;;;;;;6115478;23;20516;-86
2023/12/09 15:54:45;;;;;;;3.00;1.70;;;18.20;60.90;;;;;;6139079;23;20185;-86
2023/12/09 15:57:12;;;;;;;2.67;1.60;;;18.10;60.60;;;;;;6137999;23;20213;-86
2023/12/09 15:59:39;;;;;;;6.32;1.60;;;18.10;61.10;;;;;;6139735;23;20146;-87
2023/12/09 16:02:05;;;;;;;4.72;2.20;;;18.10;60.90;;;;;;6138648;23;20197;-85
2023/12/09 16:04:31;;;;;;;2.35;1.40;;;18.10;60.70;;;;;;6162176;23;20185;-86
2023/12/09 16:06:59;;;;;;;2.80;1.50;;;18.20;61.20;;;;;;6163249;23;20154;-86
2023/12/09 16:09:29;;;;;;;2.58;1.60;;;18.20;61.40;;;;;;6064150;23;20154;-86
2023/12/09 16:11:59;;;;;;;3.10;1.50;;;18.10;60.10;;;;;;6089945;23;20161;-86
2023/12/09 16:14:27;;;;;;;1.88;1.60;;;18.20;59.90;;;;;;6089891;23;20613;-85
2023/12/09 16:16:55;;;;;;;3.08;1.55;;;18.20;60.30;;;;;;6104060;23;20188;-86
2023/12/09 16:19:26;;;;;;;3.60;1.65;;;18.20;60.80;;;;;;6054526;23;20156;-86
2023/12/09 16:21:56;;;;;;;2.45;1.58;;;18.20;60.60;;;;;;6053165;23;20159;-86
2023/12/09 16:24:26;;;;;;;4.32;1.30;;;18.20;59.90;;;;;;6102888;23;20215;-85
2023/12/09 16:26:56;;;;;;;3.10;1.55;;;18.20;60.60;;;;;;6077898;23;20177;-86
2023/12/09 16:29:23;;;;;;;3.72;1.27;;;18.20;60.30;;;;;;6075870;23;20152;-85
2023/12/09 16:31:56;;;;;;;2.00;1.60;;;18.20;61.50;;;;;;6076186;23;20159;-84
2023/12/09 16:34:22;;;;;;;2.97;1.70;;;18.20;61.30;;;;;;6100707;23;20182;-83
2023/12/09 16:37:00;;;;;;;3.03;1.50;;;18.20;60.30;;;;;;6124199;23;20171;-86
2023/12/09 16:39:30;;;;;;;3.35;1.48;;;18.20;60.00;;;;;;6083189;23;20148;-86
2023/12/09 16:41:59;;;;;;;1.98;1.73;;;18.10;60.70;;;;;;6064707;23;20161;-85
2023/12/09 17:36:45;;;;;;;2.05;1.27;;;18.20;58.50;;;;;;6185596;23;20213;-86
2023/12/09 17:39:21;;;;;;;2.38;1.20;;;18.10;60.30;;;;;;6108917;23;20163;-85
2023/12/09 17:41:57;;;;;;;3.80;1.50;;;18.20;59.40;;;;;;6135077;23;20139;-86
2023/12/09 17:44:28;;;;;;;2.28;1.45;;;18.10;59.90;;;;;;6087460;23;20157;-87
2023/12/09 17:47:00;;;;;;;1.80;1.42;;;18.10;59.30;;;;;;6062978;23;20182;-85
2023/12/09 17:57:13;;;;;;;1.92;1.45;;;18.10;59.50;;;;;;6187947;23;20206;-87
2023/12/09 17:59:42;;;;;;;2.08;1.50;;;18.10;59.30;;;;;;6136969;23;20150;-85
2023/12/09 18:02:17;;;;;;;1.90;1.40;;;18.00;59.30;;;;;;6160957;23;20142;-86
2023/12/09 18:04:45;;;;;;;2.17;1.23;;;18.10;58.70;;;;;;6161394;23;20649;-85
2023/12/09 18:07:11;;;;;;;2.20;1.20;;;18.20;59.30;;;;;;6135467;23;20164;-86
2023/12/09 18:09:37;;;;;;;2.42;1.23;;;18.20;58.30;;;;;;6136529;23;20151;-87
2023/12/09 18:12:10;;;;;;;1.77;1.30;;;18.10;59.40;;;;;;6136155;23;20154;-86
2023/12/09 18:14:35;;;;;;;1.70;1.30;;;18.10;58.80;;;;;;6161214;23;20131;-87
2023/12/09 18:17:01;;;;;;;1.35;1.23;;;18.20;59.10;;;;;;6135944;23;20498;-86
2023/12/09 18:19:27;;;;;;;1.70;1.20;;;18.10;59.20;;;;;;6161256;23;20161;-87
2023/12/09 18:21:53;;;;;;;1.50;1.30;;;18.10;58.90;;;;;;6161133;23;20214;-87
2023/12/09 18:24:20;;;;;;;1.85;1.30;;;18.10;58.90;;;;;;6135720;23;20147;-85
2023/12/09 18:26:48;;;;;;;1.92;1.20;;;18.20;58.30;;;;;;6135859;23;20147;-87
2023/12/09 18:29:14;;;;;;;1.33;1.00;;;18.10;58.50;;;;;;6136982;23;20146;-86
2023/12/09 18:31:41;;;;;;;1.42;1.25;;;18.10;58.40;;;;;;6160197;23;20131;-86
2023/12/09 18:34:08;;;;;;;2.40;1.30;;;18.10;58.40;;;;;;6136012;23;20229;-85
2023/12/09 18:36:34;;;;;;;1.63;1.20;;;18.10;59.50;;;;;;6134882;23;20177;-86
2023/12/09 18:39:06;;;;;;;2.05;1.10;;;18.10;59.10;;;;;;6159805;23;20139;-85
2023/12/09 18:51:43;;;;;;;1.70;1.10;;;18.00;58.30;;;;;;6186614;23;20629;-87
2023/12/09 18:56:44;;;;;;;1.50;1.33;;;18.00;59.30;;;;;;6160507;23;20174;-85
2023/12/09 18:59:12;;;;;;;1.17;1.08;;;18.10;58.50;;;;;;6161614;23;20147;-85
2023/12/09 19:01:38;;;;;;;1.58;1.20;;;18.00;58.80;;;;;;6188781;23;20443;-86
2023/12/09 19:04:05;;;;;;;2.53;1.40;;;18.00;58.70;;;;;;6190567;23;20133;-85
2023/12/09 19:06:31;;;;;;;1.10;1.00;;;18.00;58.40;;;;;;6164521;23;20205;-86
2023/12/09 19:08:58;;;;;;;1.45;1.20;;;18.00;59.00;;;;;;6189375;23;20573;-85
2023/12/09 19:17:47;;;;;;;1.25;1.15;;;18.00;57.70;;;;;;6156436;23;20278;-84
2023/12/09 19:20:17;;;;;;;1.20;1.10;;;18.00;58.80;;;;;;6130056;23;20164;-85
2023/12/09 19:22:43;;;;;;;1.83;1.20;;;18.10;58.60;;;;;;6130512;23;20139;-85
2023/12/09 19:25:11;;;;;;;1.75;1.10;;;17.90;58.80;;;;;;6106088;23;20173;-86
2023/12/09 19:27:37;;;;;;;1.58;1.05;;;18.00;58.30;;;;;;6130806;23;20136;-86
2023/12/09 19:33:25;;;;;;;2.28;1.60;;;18.00;58.50;;;;;;6161927;23;20253;-86
2023/12/09 19:35:53;;;;;;;1.95;1.20;;;18.00;58.30;;;;;;6184115;23;20675;-86
2023/12/09 19:38:22;;;;;;;1.20;1.05;;;18.00;58.50;;;;;;6160089;23;20155;-85
2023/12/09 19:40:48;;;;;;;1.50;1.13;;;18.00;58.20;;;;;;6159582;23;20209;-86
2023/12/09 19:45:50;;;;;;;2.28;1.30;;;18.00;59.00;;;;;;6176459;23;20206;-85
2023/12/09 19:48:16;;;;;;;2.20;1.10;;;18.00;57.80;;;;;;6134912;23;20139;-85
2023/12/09 19:50:44;;;;;;;1.65;1.20;;;18.00;58.70;;;;;;6134840;23;20146;-85
2023/12/09 19:53:13;;;;;;;1.63;1.10;;;17.90;58.20;;;;;;6135325;23;20139;-86
2023/12/09 19:55:40;;;;;;;1.40;1.20;;;18.00;58.90;;;;;;6159271;23;20201;-85
2023/12/09 19:58:07;;;;;;;1.25;1.10;;;17.90;58.70;;;;;;6134820;23;20197;-86
2023/12/09 20:05:43;;;;;;;1.40;1.07;;;17.90;59.00;;;;;;6187393;23;20181;-85
2023/12/09 20:08:14;;;;;;;1.10;1.00;;;17.90;58.60;;;;;;6159305;23;20166;-87
2023/12/09 20:10:41;;;;;;;1.45;1.13;;;18.00;57.70;;;;;;6086198;23;20161;-86
2023/12/09 20:13:07;;;;;;;1.35;1.02;;;17.90;59.10;;;;;;6135421;23;20609;-86
2023/12/09 20:15:47;;;;;;;1.45;1.05;;;17.90;58.50;;;;;;6159891;23;20589;-86
2023/12/09 20:18:12;;;;;;;1.10;1.00;;;17.80;58.40;;;;;;6085655;23;20151;-86